createdAt,value
2024-02-19T00:01:45.770Z,10.85
2024-02-19T00:04:12.562Z,10.73
2024-02-19T00:06:39.846Z,9.85
2024-02-19T00:09:06.451Z,9.60
2024-02-19T00:11:33.118Z,10.25
2024-02-19T00:13:59.800Z,9.98
2024-02-19T00:16:26.435Z,9.38
2024-02-19T00:18:53.232Z,9.50
2024-02-19T00:21:19.964Z,9.32
2024-02-19T00:23:46.692Z,9.73
2024-02-19T00:26:14.374Z,8.25
2024-02-19T00:28:41.121Z,7.53
2024-02-19T00:31:11.812Z,8.23
2024-02-19T00:33:39.497Z,7.30
2024-02-19T00:36:06.282Z,6.47
2024-02-19T00:38:32.977Z,8.27
2024-02-19T00:40:59.523Z,7.80
2024-02-19T00:43:26.206Z,8.10
2024-02-19T00:45:52.898Z,7.70
2024-02-19T00:48:19.637Z,8.23
2024-02-19T00:50:46.145Z,7.53
2024-02-19T00:53:12.654Z,7.70
2024-02-19T00:58:05.873Z,6.43
2024-02-19T01:00:33.006Z,5.47
2024-02-19T01:02:59.566Z,5.13
2024-02-19T01:05:26.926Z,5.38
2024-02-19T01:07:53.584Z,4.60
2024-02-19T01:10:22.847Z,5.15
2024-02-19T01:12:49.553Z,4.22
2024-02-19T01:15:17.139Z,3.85
2024-02-19T01:17:45.282Z,3.95
2024-02-19T01:20:12.411Z,3.45
2024-02-19T01:22:40.001Z,3.22
2024-02-19T01:25:07.067Z,4.28
2024-02-19T01:27:33.614Z,3.25
2024-02-19T01:30:01.341Z,3.22
2024-02-19T01:32:28.116Z,3.47
2024-02-19T01:34:54.766Z,2.83
2024-02-19T01:37:21.891Z,2.50
2024-02-19T01:39:48.775Z,2.42
2024-02-19T01:42:15.261Z,2.90
2024-02-19T23:17:44.868Z,5.82
2024-02-19T23:20:11.783Z,8.25
2024-02-19T23:22:40.043Z,6.68
2024-02-19T23:25:07.643Z,7.40
2024-02-19T23:27:34.647Z,7.80
2024-02-19T23:30:02.699Z,7.82
2024-02-19T23:32:29.753Z,7.93
2024-02-19T23:34:57.239Z,7.97
2024-02-19T23:37:23.878Z,6.68
2024-02-19T23:39:50.539Z,6.05
2024-02-19T23:42:17.182Z,6.97
2024-02-19T23:44:44.589Z,7.78
2024-02-19T23:47:11.196Z,7.65
2024-02-19T23:49:38.687Z,7.68
2024-02-19T23:52:05.999Z,7.40
2024-02-19T23:54:32.703Z,6.35
2024-02-19T23:56:59.296Z,7.60
2024-02-19T23:59:26.197Z,8.50
